sensor_id;sensor_type;location;lat;lon;timestamp;P1;durP1;ratioP1;P2;durP2;ratioP2
64873;SDS011;51367;45.204;38.576;2023-08-08T00:02:15;10.52;;;6.65;;
64873;SDS011;51367;45.204;38.576;2023-08-08T00:04:41;6.95;;;6.18;;
64873;SDS011;51367;45.204;38.576;2023-08-08T00:07:07;6.63;;;5.97;;
64873;SDS011;51367;45.204;38.576;2023-08-08T00:09:33;8.85;;;6.10;;
64873;SDS011;51367;45.204;38.576;2023-08-08T00:11:59;9.90;;;6.05;;
64873;SDS011;51367;45.204;38.576;2023-08-08T00:14:25;8.48;;;6.05;;
64873;SDS011;51367;45.204;38.576;2023-08-08T00:16:51;10.77;;;6.28;;
64873;SDS011;51367;45.204;38.576;2023-08-08T00:19:17;6.68;;;6.07;;
64873;SDS011;51367;45.204;38.576;2023-08-08T00:21:43;12.98;;;6.10;;
64873;SDS011;51367;45.204;38.576;2023-08-08T00:24:09;17.42;;;6.70;;
64873;SDS011;51367;45.204;38.576;2023-08-08T00:26:35;9.10;;;5.18;;
64873;SDS011;51367;45.204;38.576;2023-08-08T00:29:01;12.05;;;5.97;;
64873;SDS011;51367;45.204;38.576;2023-08-08T00:31:27;13.52;;;6.15;;
64873;SDS011;51367;45.204;38.576;2023-08-08T00:33:53;7.20;;;6.15;;
64873;SDS011;51367;45.204;38.576;2023-08-08T00:36:19;7.00;;;6.32;;
64873;SDS011;51367;45.204;38.576;2023-08-08T00:38:46;6.43;;;5.85;;
64873;SDS011;51367;45.204;38.576;2023-08-08T00:41:12;12.68;;;6.95;;
64873;SDS011;51367;45.204;38.576;2023-08-08T00:43:38;7.80;;;5.95;;
64873;SDS011;51367;45.204;38.576;2023-08-08T00:46:04;8.02;;;6.97;;
64873;SDS011;51367;45.204;38.576;2023-08-08T00:48:30;6.82;;;6.13;;
64873;SDS011;51367;45.204;38.576;2023-08-08T00:50:58;7.32;;;6.07;;
64873;SDS011;51367;45.204;38.576;2023-08-08T00:53:25;8.45;;;6.75;;
64873;SDS011;51367;45.204;38.576;2023-08-08T00:55:53;6.70;;;6.10;;
64873;SDS011;51367;45.204;38.576;2023-08-08T00:58:20;10.23;;;6.55;;
64873;SDS011;51367;45.204;38.576;2023-08-08T01:00:46;8.90;;;7.30;;
64873;SDS011;51367;45.204;38.576;2023-08-08T01:03:12;7.43;;;6.57;;
64873;SDS011;51367;45.204;38.576;2023-08-08T01:05:41;7.85;;;6.00;;
64873;SDS011;51367;45.204;38.576;2023-08-08T01:08:14;6.60;;;5.95;;
64873;SDS011;51367;45.204;38.576;2023-08-08T01:10:45;6.83;;;5.90;;
64873;SDS011;51367;45.204;38.576;2023-08-08T01:13:13;11.15;;;6.40;;
64873;SDS011;51367;45.204;38.576;2023-08-08T01:15:49;10.32;;;6.53;;
64873;SDS011;51367;45.204;38.576;2023-08-08T01:18:16;8.63;;;6.97;;
64873;SDS011;51367;45.204;38.576;2023-08-08T01:20:43;10.48;;;6.35;;
64873;SDS011;51367;45.204;38.576;2023-08-08T01:25:44;8.32;;;7.53;;
64873;SDS011;51367;45.204;38.576;2023-08-08T01:28:13;18.92;;;13.13;;
64873;SDS011;51367;45.204;38.576;2023-08-08T01:30:39;17.77;;;10.80;;
64873;SDS011;51367;45.204;38.576;2023-08-08T01:33:06;19.08;;;10.00;;
64873;SDS011;51367;45.204;38.576;2023-08-08T01:35:37;20.35;;;10.40;;
64873;SDS011;51367;45.204;38.576;2023-08-08T01:38:10;9.45;;;8.50;;
64873;SDS011;51367;45.204;38.576;2023-08-08T01:40:47;12.90;;;9.20;;
64873;SDS011;51367;45.204;38.576;2023-08-08T01:43:14;10.60;;;9.55;;
64873;SDS011;51367;45.204;38.576;2023-08-08T01:45:40;11.15;;;8.20;;
64873;SDS011;51367;45.204;38.576;2023-08-08T01:48:08;11.80;;;8.43;;
64873;SDS011;51367;45.204;38.576;2023-08-08T01:50:36;36.40;;;20.75;;
64873;SDS011;51367;45.204;38.576;2023-08-08T01:53:02;27.05;;;20.48;;
64873;SDS011;51367;45.204;38.576;2023-08-08T01:55:30;23.63;;;15.60;;
64873;SDS011;51367;45.204;38.576;2023-08-08T01:57:56;22.33;;;16.92;;
64873;SDS011;51367;45.204;38.576;2023-08-08T02:00:22;18.88;;;15.82;;
64873;SDS011;51367;45.204;38.576;2023-08-08T02:02:48;20.52;;;14.63;;
64873;SDS011;51367;45.204;38.576;2023-08-08T02:05:14;26.17;;;14.55;;
64873;SDS011;51367;45.204;38.576;2023-08-08T02:07:40;19.13;;;13.30;;
64873;SDS011;51367;45.204;38.576;2023-08-08T02:10:06;16.27;;;13.35;;
64873;SDS011;51367;45.204;38.576;2023-08-08T02:12:32;17.20;;;12.82;;
64873;SDS011;51367;45.204;38.576;2023-08-08T02:14:58;15.85;;;11.63;;
64873;SDS011;51367;45.204;38.576;2023-08-08T02:17:25;17.98;;;12.93;;
64873;SDS011;51367;45.204;38.576;2023-08-08T02:19:51;17.20;;;10.90;;
64873;SDS011;51367;45.204;38.576;2023-08-08T02:22:18;11.57;;;10.27;;
64873;SDS011;51367;45.204;38.576;2023-08-08T02:24:44;13.55;;;10.77;;
64873;SDS011;51367;45.204;38.576;2023-08-08T02:27:11;14.85;;;10.43;;
64873;SDS011;51367;45.204;38.576;2023-08-08T02:29:37;14.60;;;9.27;;
64873;SDS011;51367;45.204;38.576;2023-08-08T02:32:03;19.15;;;9.73;;
64873;SDS011;51367;45.204;38.576;2023-08-08T02:34:29;15.75;;;9.35;;
64873;SDS011;51367;45.204;38.576;2023-08-08T02:36:55;11.40;;;8.90;;
64873;SDS011;51367;45.204;38.576;2023-08-08T02:39:21;12.88;;;9.18;;
64873;SDS011;51367;45.204;38.576;2023-08-08T02:41:47;10.85;;;9.77;;
64873;SDS011;51367;45.204;38.576;2023-08-08T02:44:13;11.82;;;9.82;;
64873;SDS011;51367;45.204;38.576;2023-08-08T02:46:39;15.23;;;11.25;;
64873;SDS011;51367;45.204;38.576;2023-08-08T02:49:06;14.32;;;9.90;;
64873;SDS011;51367;45.204;38.576;2023-08-08T02:51:32;12.75;;;10.38;;
64873;SDS011;51367;45.204;38.576;2023-08-08T02:53:58;25.50;;;16.10;;
64873;SDS011;51367;45.204;38.576;2023-08-08T02:56:24;22.40;;;14.27;;
64873;SDS011;51367;45.204;38.576;2023-08-08T02:58:52;15.63;;;11.45;;
64873;SDS011;51367;45.204;38.576;2023-08-08T03:01:18;19.67;;;10.75;;
64873;SDS011;51367;45.204;38.576;2023-08-08T03:03:46;15.27;;;10.38;;
64873;SDS011;51367;45.204;38.576;2023-08-08T03:06:13;10.65;;;9.65;;
64873;SDS011;51367;45.204;38.576;2023-08-08T03:08:39;16.35;;;9.10;;
64873;SDS011;51367;45.204;38.576;2023-08-08T03:11:05;11.10;;;9.27;;
64873;SDS011;51367;45.204;38.576;2023-08-08T03:13:32;9.85;;;8.95;;
64873;SDS011;51367;45.204;38.576;2023-08-08T03:15:58;13.43;;;9.18;;
64873;SDS011;51367;45.204;38.576;2023-08-08T03:18:24;14.57;;;9.30;;
64873;SDS011;51367;45.204;38.576;2023-08-08T03:20:51;18.63;;;10.07;;
64873;SDS011;51367;45.204;38.576;2023-08-08T03:23:18;13.50;;;10.68;;
64873;SDS011;51367;45.204;38.576;2023-08-08T03:25:45;12.93;;;10.35;;
64873;SDS011;51367;45.204;38.576;2023-08-08T03:28:12;35.92;;;11.27;;
64873;SDS011;51367;45.204;38.576;2023-08-08T03:30:38;19.50;;;11.52;;
64873;SDS011;51367;45.204;38.576;2023-08-08T03:33:07;25.10;;;17.00;;
64873;SDS011;51367;45.204;38.576;2023-08-08T03:35:33;26.08;;;15.27;;
64873;SDS011;51367;45.204;38.576;2023-08-08T03:38:00;28.48;;;16.52;;
64873;SDS011;51367;45.204;38.576;2023-08-08T03:40:25;31.67;;;18.63;;
64873;SDS011;51367;45.204;38.576;2023-08-08T03:42:51;21.85;;;13.35;;
64873;SDS011;51367;45.204;38.576;2023-08-08T03:45:17;14.30;;;11.02;;
64873;SDS011;51367;45.204;38.576;2023-08-08T03:47:44;17.88;;;12.57;;
64873;SDS011;51367;45.204;38.576;2023-08-08T03:50:11;13.65;;;11.38;;
64873;SDS011;51367;45.204;38.576;2023-08-08T03:52:37;17.83;;;8.23;;
64873;SDS011;51367;45.204;38.576;2023-08-08T03:55:08;11.13;;;8.18;;
64873;SDS011;51367;45.204;38.576;2023-08-08T03:57:34;11.65;;;8.75;;
64873;SDS011;51367;45.204;38.576;2023-08-08T04:00:00;7.82;;;6.47;;
64873;SDS011;51367;45.204;38.576;2023-08-08T04:02:26;8.02;;;6.47;;
64873;SDS011;51367;45.204;38.576;2023-08-08T04:04:53;8.18;;;7.28;;
64873;SDS011;51367;45.204;38.576;2023-08-08T04:07:19;7.63;;;6.88;;
64873;SDS011;51367;45.204;38.576;2023-08-08T04:09:45;12.52;;;6.78;;
64873;SDS011;51367;45.204;38.576;2023-08-08T04:12:11;8.18;;;7.18;;
64873;SDS011;51367;45.204;38.576;2023-08-08T04:14:37;9.13;;;7.82;;
64873;SDS011;51367;45.204;38.576;2023-08-08T04:17:03;9.20;;;7.90;;
64873;SDS011;51367;45.204;38.576;2023-08-08T04:19:30;8.95;;;8.05;;
64873;SDS011;51367;45.204;38.576;2023-08-08T04:21:56;9.77;;;8.38;;
64873;SDS011;51367;45.204;38.576;2023-08-08T04:24:21;11.88;;;8.43;;
64873;SDS011;51367;45.204;38.576;2023-08-08T04:26:47;10.82;;;8.18;;
64873;SDS011;51367;45.204;38.576;2023-08-08T04:29:13;6.72;;;6.10;;
64873;SDS011;51367;45.204;38.576;2023-08-08T04:31:39;8.95;;;6.47;;
64873;SDS011;51367;45.204;38.576;2023-08-08T04:34:05;8.98;;;6.63;;
64873;SDS011;51367;45.204;38.576;2023-08-08T04:36:31;8.50;;;6.63;;
64873;SDS011;51367;45.204;38.576;2023-08-08T04:38:57;10.48;;;6.45;;
64873;SDS011;51367;45.204;38.576;2023-08-08T04:41:23;14.85;;;7.47;;
64873;SDS011;51367;45.204;38.576;2023-08-08T04:43:49;9.40;;;6.68;;
64873;SDS011;51367;45.204;38.576;2023-08-08T04:46:15;14.35;;;7.20;;
64873;SDS011;51367;45.204;38.576;2023-08-08T04:48:40;13.40;;;6.85;;
64873;SDS011;51367;45.204;38.576;2023-08-08T04:51:06;16.75;;;6.78;;
64873;SDS011;51367;45.204;38.576;2023-08-08T04:53:34;10.48;;;6.00;;
64873;SDS011;51367;45.204;38.576;2023-08-08T04:56:00;7.53;;;5.88;;
64873;SDS011;51367;45.204;38.576;2023-08-08T04:58:26;9.82;;;6.25;;
64873;SDS011;51367;45.204;38.576;2023-08-08T05:00:52;10.52;;;6.32;;
64873;SDS011;51367;45.204;38.576;2023-08-08T05:03:18;8.02;;;5.35;;
64873;SDS011;51367;45.204;38.576;2023-08-08T05:05:43;9.95;;;4.57;;
64873;SDS011;51367;45.204;38.576;2023-08-08T05:08:12;4.03;;;3.63;;
64873;SDS011;51367;45.204;38.576;2023-08-08T05:10:39;4.25;;;3.35;;
64873;SDS011;51367;45.204;38.576;2023-08-08T05:13:05;4.47;;;3.90;;
64873;SDS011;51367;45.204;38.576;2023-08-08T05:15:30;4.93;;;3.80;;
64873;SDS011;51367;45.204;38.576;2023-08-08T05:17:57;11.15;;;5.30;;
64873;SDS011;51367;45.204;38.576;2023-08-08T05:20:23;5.57;;;4.05;;
64873;SDS011;51367;45.204;38.576;2023-08-08T05:22:49;4.95;;;3.58;;
64873;SDS011;51367;45.204;38.576;2023-08-08T05:25:14;3.95;;;2.75;;
64873;SDS011;51367;45.204;38.576;2023-08-08T05:27:41;3.35;;;3.15;;
64873;SDS011;51367;45.204;38.576;2023-08-08T05:30:07;4.18;;;3.47;;
64873;SDS011;51367;45.204;38.576;2023-08-08T05:32:33;2.95;;;2.70;;
64873;SDS011;51367;45.204;38.576;2023-08-08T05:34:59;7.22;;;3.38;;
64873;SDS011;51367;45.204;38.576;2023-08-08T05:37:26;3.08;;;2.75;;
64873;SDS011;51367;45.204;38.576;2023-08-08T05:39:53;2.72;;;2.53;;
64873;SDS011;51367;45.204;38.576;2023-08-08T05:42:19;2.83;;;2.28;;
64873;SDS011;51367;45.204;38.576;2023-08-08T05:44:45;4.00;;;1.98;;
64873;SDS011;51367;45.204;38.576;2023-08-08T05:47:11;3.22;;;2.92;;
64873;SDS011;51367;45.204;38.576;2023-08-08T05:49:37;2.42;;;2.22;;
64873;SDS011;51367;45.204;38.576;2023-08-08T05:52:04;4.93;;;2.15;;
64873;SDS011;51367;45.204;38.576;2023-08-08T05:54:30;2.20;;;2.00;;
64873;SDS011;51367;45.204;38.576;2023-08-08T05:56:56;2.38;;;1.80;;
64873;SDS011;51367;45.204;38.576;2023-08-08T05:59:22;2.78;;;1.98;;
64873;SDS011;51367;45.204;38.576;2023-08-08T06:01:48;2.85;;;2.05;;
64873;SDS011;51367;45.204;38.576;2023-08-08T06:04:14;4.90;;;2.47;;
64873;SDS011;51367;45.204;38.576;2023-08-08T06:06:40;2.28;;;1.92;;
64873;SDS011;51367;45.204;38.576;2023-08-08T06:09:06;1.85;;;1.73;;
64873;SDS011;51367;45.204;38.576;2023-08-08T06:11:34;1.80;;;1.50;;
64873;SDS011;51367;45.204;38.576;2023-08-08T06:14:00;1.55;;;1.35;;
64873;SDS011;51367;45.204;38.576;2023-08-08T06:16:26;2.72;;;1.58;;
64873;SDS011;51367;45.204;38.576;2023-08-08T06:18:52;2.13;;;1.60;;
64873;SDS011;51367;45.204;38.576;2023-08-08T06:21:18;1.38;;;1.20;;
64873;SDS011;51367;45.204;38.576;2023-08-08T06:23:44;1.52;;;1.40;;
64873;SDS011;51367;45.204;38.576;2023-08-08T06:26:10;2.35;;;1.70;;
64873;SDS011;51367;45.204;38.576;2023-08-08T06:28:36;4.00;;;1.60;;
64873;SDS011;51367;45.204;38.576;2023-08-08T06:31:02;1.48;;;1.38;;
64873;SDS011;51367;45.204;38.576;2023-08-08T06:33:28;2.05;;;1.65;;
64873;SDS011;51367;45.204;38.576;2023-08-08T06:35:55;2.28;;;1.55;;
64873;SDS011;51367;45.204;38.576;2023-08-08T06:38:21;4.43;;;1.30;;
64873;SDS011;51367;45.204;38.576;2023-08-08T06:40:47;1.85;;;1.35;;
64873;SDS011;51367;45.204;38.576;2023-08-08T06:43:13;2.55;;;1.42;;
64873;SDS011;51367;45.204;38.576;2023-08-08T06:45:39;1.75;;;1.50;;
64873;SDS011;51367;45.204;38.576;2023-08-08T06:48:05;1.65;;;1.55;;
64873;SDS011;51367;45.204;38.576;2023-08-08T06:50:31;1.63;;;1.52;;
64873;SDS011;51367;45.204;38.576;2023-08-08T06:52:57;2.17;;;1.67;;
64873;SDS011;51367;45.204;38.576;2023-08-08T06:55:23;1.88;;;1.27;;
64873;SDS011;51367;45.204;38.576;2023-08-08T06:57:49;1.02;;;1.02;;
64873;SDS011;51367;45.204;38.576;2023-08-08T07:00:15;1.70;;;1.60;;
64873;SDS011;51367;45.204;38.576;2023-08-08T07:02:41;2.88;;;1.77;;
64873;SDS011;51367;45.204;38.576;2023-08-08T07:05:07;1.42;;;1.33;;
64873;SDS011;51367;45.204;38.576;2023-08-08T07:07:35;2.97;;;1.85;;
64873;SDS011;51367;45.204;38.576;2023-08-08T07:10:01;1.65;;;1.50;;
64873;SDS011;51367;45.204;38.576;2023-08-08T07:12:29;1.95;;;1.83;;
64873;SDS011;51367;45.204;38.576;2023-08-08T07:14:55;2.03;;;1.60;;
64873;SDS011;51367;45.204;38.576;2023-08-08T07:17:21;1.65;;;1.55;;
64873;SDS011;51367;45.204;38.576;2023-08-08T07:19:47;3.72;;;2.17;;
64873;SDS011;51367;45.204;38.576;2023-08-08T07:22:13;19.05;;;2.05;;
64873;SDS011;51367;45.204;38.576;2023-08-08T07:24:38;2.35;;;2.08;;
64873;SDS011;51367;45.204;38.576;2023-08-08T07:27:04;2.17;;;1.63;;
64873;SDS011;51367;45.204;38.576;2023-08-08T07:29:31;1.67;;;1.58;;
64873;SDS011;51367;45.204;38.576;2023-08-08T07:31:58;1.58;;;1.48;;
64873;SDS011;51367;45.204;38.576;2023-08-08T07:34:24;2.88;;;1.42;;
64873;SDS011;51367;45.204;38.576;2023-08-08T07:36:50;1.88;;;1.77;;
64873;SDS011;51367;45.204;38.576;2023-08-08T07:39:16;4.28;;;1.73;;
64873;SDS011;51367;45.204;38.576;2023-08-08T07:41:43;2.38;;;1.90;;
64873;SDS011;51367;45.204;38.576;2023-08-08T07:44:09;4.43;;;2.10;;
64873;SDS011;51367;45.204;38.576;2023-08-08T07:46:35;2.47;;;1.48;;
64873;SDS011;51367;45.204;38.576;2023-08-08T07:49:01;1.90;;;1.80;;
64873;SDS011;51367;45.204;38.576;2023-08-08T07:51:29;3.78;;;2.00;;
64873;SDS011;51367;45.204;38.576;2023-08-08T07:53:55;2.35;;;1.77;;
64873;SDS011;51367;45.204;38.576;2023-08-08T07:56:21;2.72;;;1.77;;
64873;SDS011;51367;45.204;38.576;2023-08-08T07:58:48;2.08;;;1.95;;
64873;SDS011;51367;45.204;38.576;2023-08-08T08:01:14;2.35;;;1.90;;
64873;SDS011;51367;45.204;38.576;2023-08-08T08:03:40;2.47;;;2.00;;
64873;SDS011;51367;45.204;38.576;2023-08-08T08:06:07;3.72;;;1.92;;
64873;SDS011;51367;45.204;38.576;2023-08-08T08:08:33;3.17;;;2.25;;
64873;SDS011;51367;45.204;38.576;2023-08-08T08:10:59;3.63;;;2.63;;
64873;SDS011;51367;45.204;38.576;2023-08-08T08:13:26;1.90;;;1.70;;
64873;SDS011;51367;45.204;38.576;2023-08-08T08:15:52;1.85;;;1.75;;
64873;SDS011;51367;45.204;38.576;2023-08-08T08:18:18;2.30;;;2.10;;
64873;SDS011;51367;45.204;38.576;2023-08-08T08:20:45;4.72;;;2.40;;
64873;SDS011;51367;45.204;38.576;2023-08-08T08:23:12;5.72;;;1.92;;
64873;SDS011;51367;45.204;38.576;2023-08-08T08:25:38;2.40;;;1.70;;
64873;SDS011;51367;45.204;38.576;2023-08-08T08:28:04;2.22;;;1.88;;
64873;SDS011;51367;45.204;38.576;2023-08-08T08:30:30;2.20;;;2.08;;
64873;SDS011;51367;45.204;38.576;2023-08-08T08:32:56;5.90;;;2.05;;
64873;SDS011;51367;45.204;38.576;2023-08-08T08:35:22;11.15;;;1.88;;
64873;SDS011;51367;45.204;38.576;2023-08-08T08:37:50;3.38;;;2.35;;
64873;SDS011;51367;45.204;38.576;2023-08-08T08:40:17;2.58;;;2.10;;
64873;SDS011;51367;45.204;38.576;2023-08-08T08:42:43;5.07;;;2.20;;
64873;SDS011;51367;45.204;38.576;2023-08-08T08:45:11;3.28;;;2.35;;
64873;SDS011;51367;45.204;38.576;2023-08-08T08:47:41;3.70;;;2.17;;
64873;SDS011;51367;45.204;38.576;2023-08-08T08:50:10;2.17;;;1.85;;
64873;SDS011;51367;45.204;38.576;2023-08-08T08:52:40;2.60;;;2.25;;
64873;SDS011;51367;45.204;38.576;2023-08-08T08:55:08;3.10;;;2.08;;
64873;SDS011;51367;45.204;38.576;2023-08-08T08:57:34;1.83;;;1.73;;
64873;SDS011;51367;45.204;38.576;2023-08-08T09:00:01;2.20;;;2.00;;
64873;SDS011;51367;45.204;38.576;2023-08-08T09:02:31;3.15;;;2.30;;
64873;SDS011;51367;45.204;38.576;2023-08-08T09:04:57;4.75;;;2.13;;
64873;SDS011;51367;45.204;38.576;2023-08-08T09:07:27;11.73;;;2.50;;
64873;SDS011;51367;45.204;38.576;2023-08-08T09:09:55;3.63;;;2.03;;
64873;SDS011;51367;45.204;38.576;2023-08-08T09:12:21;6.30;;;2.10;;
64873;SDS011;51367;45.204;38.576;2023-08-08T09:14:53;3.17;;;2.15;;
64873;SDS011;51367;45.204;38.576;2023-08-08T09:17:21;3.40;;;2.10;;
64873;SDS011;51367;45.204;38.576;2023-08-08T09:19:52;2.00;;;1.90;;
64873;SDS011;51367;45.204;38.576;2023-08-08T09:22:19;4.45;;;1.85;;
64873;SDS011;51367;45.204;38.576;2023-08-08T09:24:45;2.00;;;1.77;;
64873;SDS011;51367;45.204;38.576;2023-08-08T09:27:11;1.88;;;1.77;;
64873;SDS011;51367;45.204;38.576;2023-08-08T09:29:38;3.05;;;2.05;;
64873;SDS011;51367;45.204;38.576;2023-08-08T09:32:07;2.05;;;1.90;;
64873;SDS011;51367;45.204;38.576;2023-08-08T09:34:33;3.08;;;2.20;;
64873;SDS011;51367;45.204;38.576;2023-08-08T09:37:00;5.85;;;2.22;;
64873;SDS011;51367;45.204;38.576;2023-08-08T09:39:28;2.85;;;2.38;;
64873;SDS011;51367;45.204;38.576;2023-08-08T09:41:57;2.05;;;1.90;;
64873;SDS011;51367;45.204;38.576;2023-08-08T09:44:24;4.28;;;2.45;;
64873;SDS011;51367;45.204;38.576;2023-08-08T09:46:51;4.10;;;2.47;;
64873;SDS011;51367;45.204;38.576;2023-08-08T09:49:18;3.80;;;2.72;;
64873;SDS011;51367;45.204;38.576;2023-08-08T09:51:47;3.55;;;2.15;;
64873;SDS011;51367;45.204;38.576;2023-08-08T09:54:14;2.35;;;2.15;;
64873;SDS011;51367;45.204;38.576;2023-08-08T09:56:40;2.08;;;1.98;;
64873;SDS011;51367;45.204;38.576;2023-08-08T09:59:09;3.58;;;2.25;;
64873;SDS011;51367;45.204;38.576;2023-08-08T10:01:35;1.90;;;1.80;;
64873;SDS011;51367;45.204;38.576;2023-08-08T10:04:04;3.92;;;2.63;;
64873;SDS011;51367;45.204;38.576;2023-08-08T10:06:32;11.23;;;2.25;;
64873;SDS011;51367;45.204;38.576;2023-08-08T10:08:58;5.03;;;2.50;;
64873;SDS011;51367;45.204;38.576;2023-08-08T10:11:26;3.00;;;2.10;;
64873;SDS011;51367;45.204;38.576;2023-08-08T10:13:54;2.63;;;2.42;;
64873;SDS011;51367;45.204;38.576;2023-08-08T10:16:20;3.20;;;2.38;;
64873;SDS011;51367;45.204;38.576;2023-08-08T10:18:55;3.03;;;2.20;;
64873;SDS011;51367;45.204;38.576;2023-08-08T10:21:25;2.33;;;2.13;;
64873;SDS011;51367;45.204;38.576;2023-08-08T10:24:02;4.50;;;2.08;;
64873;SDS011;51367;45.204;38.576;2023-08-08T10:26:29;3.53;;;2.65;;
64873;SDS011;51367;45.204;38.576;2023-08-08T10:28:55;4.00;;;2.10;;
64873;SDS011;51367;45.204;38.576;2023-08-08T10:31:22;2.45;;;2.10;;
64873;SDS011;51367;45.204;38.576;2023-08-08T10:33:48;2.92;;;2.40;;
64873;SDS011;51367;45.204;38.576;2023-08-08T10:36:15;2.55;;;2.22;;
64873;SDS011;51367;45.204;38.576;2023-08-08T10:38:47;2.55;;;2.08;;
64873;SDS011;51367;45.204;38.576;2023-08-08T10:41:16;2.40;;;2.20;;
64873;SDS011;51367;45.204;38.576;2023-08-08T10:43:50;3.45;;;2.15;;
64873;SDS011;51367;45.204;38.576;2023-08-08T10:46:32;11.35;;;2.28;;
64873;SDS011;51367;45.204;38.576;2023-08-08T10:48:59;2.40;;;2.20;;
64873;SDS011;51367;45.204;38.576;2023-08-08T10:51:36;10.55;;;2.55;;
64873;SDS011;51367;45.204;38.576;2023-08-08T10:54:05;6.38;;;2.72;;
64873;SDS011;51367;45.204;38.576;2023-08-08T10:56:31;1.98;;;1.88;;
64873;SDS011;51367;45.204;38.576;2023-08-08T10:58:58;3.15;;;1.95;;
64873;SDS011;51367;45.204;38.576;2023-08-08T11:01:27;2.92;;;2.35;;
64873;SDS011;51367;45.204;38.576;2023-08-08T11:03:56;6.55;;;2.25;;
64873;SDS011;51367;45.204;38.576;2023-08-08T11:06:23;4.65;;;2.45;;
64873;SDS011;51367;45.204;38.576;2023-08-08T11:08:49;4.68;;;1.90;;
64873;SDS011;51367;45.204;38.576;2023-08-08T11:11:16;3.17;;;2.28;;
64873;SDS011;51367;45.204;38.576;2023-08-08T11:13:42;2.33;;;2.13;;
64873;SDS011;51367;45.204;38.576;2023-08-08T11:16:08;4.93;;;2.28;;
64873;SDS011;51367;45.204;38.576;2023-08-08T11:18:34;3.10;;;2.03;;
64873;SDS011;51367;45.204;38.576;2023-08-08T11:21:00;6.03;;;2.20;;
64873;SDS011;51367;45.204;38.576;2023-08-08T11:23:35;2.30;;;2.10;;
64873;SDS011;51367;45.204;38.576;2023-08-08T11:26:03;6.50;;;2.00;;
64873;SDS011;51367;45.204;38.576;2023-08-08T11:28:29;6.10;;;2.33;;
64873;SDS011;51367;45.204;38.576;2023-08-08T11:30:55;6.13;;;2.97;;
64873;SDS011;51367;45.204;38.576;2023-08-08T11:33:21;2.60;;;2.33;;
64873;SDS011;51367;45.204;38.576;2023-08-08T11:35:47;4.38;;;2.33;;
64873;SDS011;51367;45.204;38.576;2023-08-08T11:38:14;5.97;;;2.78;;
64873;SDS011;51367;45.204;38.576;2023-08-08T11:40:41;2.53;;;2.33;;
64873;SDS011;51367;45.204;38.576;2023-08-08T11:43:07;5.80;;;2.05;;
64873;SDS011;51367;45.204;38.576;2023-08-08T11:45:34;1.60;;;1.50;;
64873;SDS011;51367;45.204;38.576;2023-08-08T11:48:00;2.35;;;2.17;;
64873;SDS011;51367;45.204;38.576;2023-08-08T11:50:26;3.10;;;2.17;;
64873;SDS011;51367;45.204;38.576;2023-08-08T11:52:53;2.40;;;2.13;;
64873;SDS011;51367;45.204;38.576;2023-08-08T11:55:20;2.92;;;2.58;;
64873;SDS011;51367;45.204;38.576;2023-08-08T12:00:25;2.33;;;1.80;;
64873;SDS011;51367;45.204;38.576;2023-08-08T12:02:53;4.25;;;1.88;;
64873;SDS011;51367;45.204;38.576;2023-08-08T12:05:20;2.15;;;1.95;;
64873;SDS011;51367;45.204;38.576;2023-08-08T12:07:47;4.07;;;1.85;;
64873;SDS011;51367;45.204;38.576;2023-08-08T12:10:15;2.25;;;2.05;;
64873;SDS011;51367;45.204;38.576;2023-08-08T12:12:52;5.18;;;2.30;;
64873;SDS011;51367;45.204;38.576;2023-08-08T12:15:20;4.60;;;2.30;;
64873;SDS011;51367;45.204;38.576;2023-08-08T12:17:46;2.30;;;1.95;;
64873;SDS011;51367;45.204;38.576;2023-08-08T12:20:14;4.78;;;2.65;;
64873;SDS011;51367;45.204;38.576;2023-08-08T12:22:40;1.90;;;1.80;;
64873;SDS011;51367;45.204;38.576;2023-08-08T12:25:07;2.50;;;2.30;;
64873;SDS011;51367;45.204;38.576;2023-08-08T12:27:33;4.55;;;2.22;;
64873;SDS011;51367;45.204;38.576;2023-08-08T12:30:00;5.75;;;2.60;;
64873;SDS011;51367;45.204;38.576;2023-08-08T12:32:26;7.45;;;2.35;;
64873;SDS011;51367;45.204;38.576;2023-08-08T12:34:54;3.15;;;2.15;;
64873;SDS011;51367;45.204;38.576;2023-08-08T12:37:21;2.03;;;1.85;;
64873;SDS011;51367;45.204;38.576;2023-08-08T12:39:49;7.97;;;2.35;;
